Time,TemperatureF,DewpointF,PressureIn,WindDirection,WindDirectionDegrees,WindSpeedMPH,WindSpeedGustMPH,Humidity,HourlyPrecipIn,Conditions,Clouds,dailyrainin,SoftwareType,DateUTC
2013-01-27 00:04:00,-999.0,-99.9,30.37,SE,131,5.0,9.0,-999,-99.99,,,-99.99,,2013-01-27 05:04:00,
2013-01-27 00:12:00,-999.0,-99.9,30.37,SE,137,6.0,8.0,-999,-99.99,,,-99.99,,2013-01-27 05:12:00,
2013-01-27 00:22:00,-999.0,-99.9,30.37,SE,129,6.0,9.0,-999,-99.99,,,-99.99,,2013-01-27 05:22:00,
2013-01-27 00:32:00,-999.0,-99.9,30.37,SE,127,6.0,7.0,-999,-99.99,,,-99.99,,2013-01-27 05:32:00,
2013-01-27 00:42:00,-999.0,-99.9,30.37,SE,129,7.0,9.0,-999,-99.99,,,-99.99,,2013-01-27 05:42:00,
2013-01-27 00:52:00,13.0,-99.9,30.37,SE,127,7.0,10.0,-999,-99.99,,,-99.99,,2013-01-27 05:52:00,
2013-01-27 01:02:00,-999.0,-99.9,30.37,SE,128,8.0,10.0,-999,-99.99,,,-99.99,,2013-01-27 06:02:00,
2013-01-27 01:11:00,13.0,-99.9,30.37,SE,130,6.0,9.0,-999,-99.99,,,-99.99,,2013-01-27 06:11:00,
2013-01-27 01:22:00,-999.0,-99.9,30.38,SE,133,7.0,9.0,-999,-99.99,,,-99.99,,2013-01-27 06:22:00,
2013-01-27 01:32:00,-999.0,-99.9,30.38,SE,134,6.0,9.0,-999,-99.99,,,-99.99,,2013-01-27 06:32:00,
2013-01-27 01:42:00,-999.0,-99.9,30.37,SE,132,6.0,9.0,-999,-99.99,,,-99.99,,2013-01-27 06:42:00,
2013-01-27 01:52:00,-999.0,-99.9,30.38,SE,131,6.0,9.0,-999,-99.99,,,-99.99,,2013-01-27 06:52:00,
2013-01-27 02:02:00,-999.0,-99.9,30.37,SE,132,8.0,11.0,-999,-99.99,,,-99.99,,2013-01-27 07:02:00,
2013-01-27 02:14:00,-999.0,-99.9,30.37,ESE,123,12.0,15.0,-999,-99.99,,,-99.99,,2013-01-27 07:14:00,
2013-01-27 02:22:00,13.0,-99.9,30.37,SE,124,10.0,15.0,-999,-99.99,,,-99.99,,2013-01-27 07:22:00,
2013-01-27 02:32:00,-999.0,-99.9,30.37,SE,126,13.0,17.0,-999,-99.99,,,-99.99,,2013-01-27 07:32:00,
2013-01-27 02:42:00,13.0,-99.9,30.37,ESE,123,11.0,15.0,-999,-99.99,,,-99.99,,2013-01-27 07:42:00,
2013-01-27 02:52:00,-999.0,-99.9,30.37,ESE,121,12.0,16.0,-999,-99.99,,,-99.99,,2013-01-27 07:52:00,
2013-01-27 03:02:00,-999.0,-99.9,30.37,ESE,123,13.0,17.0,-999,-99.99,,,-99.99,,2013-01-27 08:02:00,
2013-01-27 03:12:00,13.0,-99.9,30.37,ESE,122,13.0,17.0,-999,-99.99,,,-99.99,,2013-01-27 08:12:00,
2013-01-27 03:22:00,-999.0,-99.9,30.37,ESE,121,11.0,16.0,-999,-99.99,,,-99.99,,2013-01-27 08:22:00,
2013-01-27 03:32:00,-999.0,-99.9,30.37,ESE,118,10.0,15.0,-999,-99.99,,,-99.99,,2013-01-27 08:32:00,
2013-01-27 03:42:00,-999.0,-99.9,30.36,ESE,110,17.0,19.0,-999,-99.99,,,-99.99,,2013-01-27 08:42:00,
2013-01-27 03:52:00,14.0,-99.9,30.36,ESE,108,16.0,19.0,-999,-99.99,,,-99.99,,2013-01-27 08:52:00,
2013-01-27 04:03:00,-999.0,-99.9,30.35,ESE,110,15.0,17.0,-999,-99.99,,,-99.99,,2013-01-27 09:03:00,
2013-01-27 04:11:00,14.0,-99.9,30.35,ESE,112,15.0,18.0,-999,-99.99,,,-99.99,,2013-01-27 09:11:00,
2013-01-27 04:22:00,-999.0,-99.9,30.35,ESE,114,13.0,18.0,-999,-99.99,,,-99.99,,2013-01-27 09:22:00,
2013-01-27 04:32:00,-999.0,-99.9,30.36,SE,131,9.0,15.0,-999,-99.99,,,-99.99,,2013-01-27 09:32:00,
2013-01-27 04:42:00,14.0,-99.9,30.36,SE,126,10.0,14.0,-999,-99.99,,,-99.99,,2013-01-27 09:42:00,
2013-01-27 04:52:00,-999.0,-99.9,30.36,ESE,117,11.0,15.0,-999,-99.99,,,-99.99,,2013-01-27 09:52:00,
2013-01-27 05:01:00,-999.0,-99.9,30.35,ESE,122,12.0,17.0,-999,-99.99,,,-99.99,,2013-01-27 10:01:00,
2013-01-27 05:11:00,-999.0,-99.9,30.36,ESE,120,11.0,15.0,-999,-99.99,,,-99.99,,2013-01-27 10:11:00,
2013-01-27 05:21:00,-999.0,-99.9,30.35,ESE,113,13.0,16.0,-999,-99.99,,,-99.99,,2013-01-27 10:21:00,
2013-01-27 05:32:00,-999.0,-99.9,30.34,ESE,107,15.0,18.0,-999,-99.99,,,-99.99,,2013-01-27 10:32:00,
2013-01-27 05:42:00,-999.0,-99.9,30.33,ESE,107,15.0,17.0,-999,-99.99,,,-99.99,,2013-01-27 10:42:00,
2013-01-27 05:52:00,15.0,-99.9,30.33,ESE,112,13.0,17.0,-999,-99.99,,,-99.99,,2013-01-27 10:52:00,
2013-01-27 06:01:00,-999.0,-99.9,30.34,ESE,121,10.0,16.0,-999,-99.99,,,-99.99,,2013-01-27 11:01:00,
2013-01-27 06:11:00,15.0,-99.9,30.33,ESE,116,13.0,18.0,-999,-99.99,,,-99.99,,2013-01-27 11:11:00,
2013-01-27 06:22:00,-999.0,-99.9,30.33,ESE,123,11.0,17.0,-999,-99.99,,,-99.99,,2013-01-27 11:22:00,
2013-01-27 06:32:00,-999.0,-99.9,30.33,ESE,120,12.0,17.0,-999,-99.99,,,-99.99,,2013-01-27 11:32:00,
2013-01-27 06:42:00,-999.0,-99.9,30.33,ESE,110,15.0,18.0,-999,-99.99,,,-99.99,,2013-01-27 11:42:00,
2013-01-27 06:52:00,-999.0,-99.9,30.33,ESE,113,14.0,17.0,-999,-99.99,,,-99.99,,2013-01-27 11:52:00,
2013-01-27 07:03:00,-999.0,-99.9,30.32,ESE,121,12.0,17.0,-999,-99.99,,,-99.99,,2013-01-27 12:03:00,
2013-01-27 07:12:00,-999.0,-99.9,30.32,ESE,115,14.0,17.0,-999,-99.99,,,-99.99,,2013-01-27 12:12:00,
2013-01-27 07:22:00,15.0,-99.9,30.32,ESE,114,15.0,19.0,-999,-99.99,,,-99.99,,2013-01-27 12:22:00,
2013-01-27 07:33:00,-999.0,-99.9,30.32,ESE,118,14.0,18.0,-999,-99.99,,,-99.99,,2013-01-27 12:33:00,
2013-01-27 07:42:00,15.0,-99.9,30.31,ESE,117,15.0,18.0,-999,-99.99,,,-99.99,,2013-01-27 12:42:00,
2013-01-27 07:52:00,-999.0,-99.9,30.31,ESE,121,12.0,17.0,-999,-99.99,,,-99.99,,2013-01-27 12:52:00,
2013-01-27 08:02:00,-999.0,-99.9,30.31,ESE,120,13.0,16.0,-999,-99.99,,,-99.99,,2013-01-27 13:02:00,
2013-01-27 08:12:00,15.0,-99.9,30.31,ESE,120,13.0,18.0,-999,-99.99,,,-99.99,,2013-01-27 13:12:00,
2013-01-27 08:22:00,-999.0,-99.9,30.31,ESE,114,15.0,17.0,-999,-99.99,,,-99.99,,2013-01-27 13:22:00,
2013-01-27 08:32:00,-999.0,-99.9,30.31,ESE,121,11.0,17.0,-999,-99.99,,,-99.99,,2013-01-27 13:32:00,
2013-01-27 08:42:00,-999.0,-99.9,30.31,ESE,114,15.0,17.0,-999,-99.99,,,-99.99,,2013-01-27 13:42:00,
2013-01-27 08:52:00,16.0,-99.9,30.31,ESE,114,14.0,17.0,-999,-99.99,,,-99.99,,2013-01-27 13:52:00,
2013-01-27 09:02:00,-999.0,-99.9,30.31,ESE,115,14.0,17.0,-999,-99.99,,,-99.99,,2013-01-27 14:02:00,
2013-01-27 09:12:00,17.0,-99.9,30.31,ESE,110,16.0,18.0,-999,-99.99,,,-99.99,,2013-01-27 14:12:00,
2013-01-27 09:22:00,-999.0,-99.9,30.31,ESE,108,15.0,18.0,-999,-99.99,,,-99.99,,2013-01-27 14:22:00,
2013-01-27 09:33:00,-999.0,-99.9,30.30,ESE,103,15.0,17.0,-999,-99.99,,,-99.99,,2013-01-27 14:33:00,
2013-01-27 09:43:00,18.0,-99.9,30.31,ESE,114,13.0,17.0,-999,-99.99,,,-99.99,,2013-01-27 14:43:00,
2013-01-27 09:53:00,-999.0,-99.9,30.30,ESE,108,14.0,17.0,-999,-99.99,,,-99.99,,2013-01-27 14:53:00,
2013-01-27 10:02:00,-999.0,-99.9,30.29,ESE,108,15.0,18.0,-999,-99.99,,,-99.99,,2013-01-27 15:02:00,
2013-01-27 10:12:00,-999.0,-99.9,30.29,ESE,102,17.0,19.0,-999,-99.99,,,-99.99,,2013-01-27 15:12:00,
2013-01-27 10:22:00,18.0,-99.9,30.29,ESE,103,17.0,19.0,-999,-99.99,,,-99.99,,2013-01-27 15:22:00,
2013-01-27 10:33:00,-999.0,-99.9,30.29,East,101,15.0,19.0,-999,-99.99,,,-99.99,,2013-01-27 15:33:00,
2013-01-27 10:43:00,18.0,-99.9,30.29,ESE,108,14.0,18.0,-999,-99.99,,,-99.99,,2013-01-27 15:43:00,
2013-01-27 10:53:00,-999.0,-99.9,30.28,ESE,108,17.0,19.0,-999,-99.99,,,-99.99,,2013-01-27 15:53:00,
2013-01-27 11:03:00,-999.0,-99.9,30.29,ESE,118,13.0,16.0,-999,-99.99,,,-99.99,,2013-01-27 16:03:00,
2013-01-27 11:12:00,17.0,-99.9,30.29,ESE,117,13.0,17.0,-999,-99.99,,,-99.99,,2013-01-27 16:12:00,
2013-01-27 11:22:00,-999.0,-99.9,30.29,ESE,107,13.0,15.0,-999,-99.99,,,-99.99,,2013-01-27 16:22:00,
2013-01-27 11:33:00,-999.0,-99.9,30.29,ESE,111,13.0,15.0,-999,-99.99,,,-99.99,,2013-01-27 16:33:00,
2013-01-27 11:42:00,-999.0,-99.9,30.28,ESE,116,12.0,15.0,-999,-99.99,,,-99.99,,2013-01-27 16:42:00,
2013-01-27 11:53:00,-999.0,-99.9,30.28,ESE,111,13.0,16.0,-999,-99.99,,,-99.99,,2013-01-27 16:53:00,
2013-01-27 12:02:00,-999.0,-99.9,30.29,ESE,108,13.0,15.0,-999,-99.99,,,-99.99,,2013-01-27 17:02:00,
2013-01-27 12:12:00,-999.0,-99.9,30.28,ESE,106,13.0,16.0,-999,-99.99,,,-99.99,,2013-01-27 17:12:00,
2013-01-27 12:22:00,21.0,-99.9,30.28,ESE,102,15.0,17.0,-999,-99.99,,,-99.99,,2013-01-27 17:22:00,
2013-01-27 12:33:00,-999.0,-99.9,30.27,East,97,15.0,17.0,-999,-99.99,,,-99.99,,2013-01-27 17:33:00,
2013-01-27 12:42:00,22.0,-99.9,30.27,East,101,14.0,17.0,-999,-99.99,,,-99.99,,2013-01-27 17:42:00,
2013-01-27 12:53:00,-999.0,-99.9,30.26,East,100,15.0,17.0,-999,-99.99,,,-99.99,,2013-01-27 17:53:00,
2013-01-27 13:03:00,-999.0,-99.9,30.26,ESE,104,13.0,15.0,-999,-99.99,,,-99.99,,2013-01-27 18:03:00,
2013-01-27 13:12:00,23.0,-99.9,30.25,ESE,108,12.0,16.0,-999,-99.99,,,-99.99,,2013-01-27 18:12:00,
2013-01-27 13:23:00,-999.0,-99.9,30.25,ESE,108,10.0,14.0,-999,-99.99,,,-99.99,,2013-01-27 18:23:00,
2013-01-27 13:33:00,-999.0,-99.9,30.25,ESE,114,9.0,13.0,-999,-99.99,,,-99.99,,2013-01-27 18:33:00,
2013-01-27 13:42:00,-999.0,-99.9,30.25,SE,124,5.0,8.0,-999,-99.99,,,-99.99,,2013-01-27 18:42:00,
2013-01-27 13:53:00,25.0,-99.9,30.24,SE,127,6.0,9.0,-999,-99.99,,,-99.99,,2013-01-27 18:53:00,
2013-01-27 14:02:00,-999.0,-99.9,30.24,ESE,116,6.0,9.0,-999,-99.99,,,-99.99,,2013-01-27 19:02:00,
2013-01-27 14:12:00,25.0,-99.9,30.24,ESE,117,7.0,8.0,-999,-99.99,,,-99.99,,2013-01-27 19:12:00,
2013-01-27 14:22:00,-999.0,-99.9,30.23,ESE,117,8.0,10.0,-999,-99.99,,,-99.99,,2013-01-27 19:22:00,
2013-01-27 14:33:00,-999.0,-99.9,30.22,ESE,121,8.0,11.0,-999,-99.99,,,-99.99,,2013-01-27 19:33:00,
2013-01-27 14:42:00,26.0,-99.9,30.22,SE,127,5.0,11.0,-999,-99.99,,,-99.99,,2013-01-27 19:42:00,
2013-01-27 14:52:00,-999.0,-99.9,30.21,ESE,117,7.0,10.0,-999,-99.99,,,-99.99,,2013-01-27 19:52:00,
2013-01-27 15:03:00,-999.0,-99.9,30.21,ESE,117,8.0,10.0,-999,-99.99,,,-99.99,,2013-01-27 20:03:00,
2013-01-27 15:12:00,-999.0,-99.9,30.20,ESE,116,6.0,11.0,-999,-99.99,,,-99.99,,2013-01-27 20:12:00,
2013-01-27 15:22:00,-999.0,-99.9,30.20,ESE,120,8.0,11.0,-999,-99.99,,,-99.99,,2013-01-27 20:22:00,
2013-01-27 15:33:00,-999.0,-99.9,30.20,ESE,115,7.0,11.0,-999,-99.99,,,-99.99,,2013-01-27 20:33:00,
2013-01-27 15:43:00,-999.0,-99.9,30.20,ESE,119,9.0,12.0,-999,-99.99,,,-99.99,,2013-01-27 20:43:00,
2013-01-27 15:52:00,27.0,-99.9,30.20,ESE,118,7.0,9.0,-999,-99.99,,,-99.99,,2013-01-27 20:52:00,
2013-01-27 16:02:00,-999.0,-99.9,30.19,ESE,108,11.0,13.0,-999,-99.99,,,-99.99,,2013-01-27 21:02:00,
2013-01-27 16:12:00,27.0,-99.9,30.19,ESE,108,11.0,13.0,-999,-99.99,,,-99.99,,2013-01-27 21:12:00,
2013-01-27 16:23:00,-999.0,-99.9,30.19,ESE,110,12.0,14.0,-999,-99.99,,,-99.99,,2013-01-27 21:23:00,
2013-01-27 16:33:00,-999.0,-99.9,30.19,ESE,107,12.0,14.0,-999,-99.99,,,-99.99,,2013-01-27 21:33:00,
2013-01-27 16:43:00,-999.0,-99.9,30.19,ESE,107,11.0,13.0,-999,-99.99,,,-99.99,,2013-01-27 21:43:00,
2013-01-27 16:52:00,-999.0,-99.9,30.19,ESE,109,12.0,14.0,-999,-99.99,,,-99.99,,2013-01-27 21:52:00,
2013-01-27 17:03:00,-999.0,-99.9,30.19,ESE,104,11.0,14.0,-999,-99.99,,,-99.99,,2013-01-27 22:03:00,
2013-01-27 17:12:00,-999.0,-99.9,30.19,ESE,110,10.0,13.0,-999,-99.99,,,-99.99,,2013-01-27 22:12:00,
2013-01-27 17:22:00,28.0,-99.9,30.19,ESE,105,12.0,13.0,-999,-99.99,,,-99.99,,2013-01-27 22:22:00,
2013-01-27 17:33:00,-999.0,-99.9,30.19,ESE,109,11.0,13.0,-999,-99.99,,,-99.99,,2013-01-27 22:33:00,
2013-01-27 17:42:00,28.0,-99.9,30.19,ESE,103,12.0,13.0,-999,-99.99,,,-99.99,,2013-01-27 22:42:00,
2013-01-27 17:52:00,-999.0,-99.9,30.19,ESE,104,14.0,15.0,-999,-99.99,,,-99.99,,2013-01-27 22:52:00,
2013-01-27 18:02:00,-999.0,-99.9,30.19,ESE,113,11.0,16.0,-999,-99.99,,,-99.99,,2013-01-27 23:02:00,
2013-01-27 18:12:00,28.0,-99.9,30.19,ESE,122,8.0,14.0,-999,-99.99,,,-99.99,,2013-01-27 23:12:00,
2013-01-27 18:22:00,-999.0,-99.9,30.19,ESE,122,7.0,10.0,-999,-99.99,,,-99.99,,2013-01-27 23:22:00,
2013-01-27 18:32:00,-999.0,-99.9,30.20,SE,128,6.0,10.0,-999,-99.99,,,-99.99,,2013-01-27 23:32:00,
2013-01-27 18:42:00,-999.0,-99.9,30.20,ESE,122,8.0,10.0,-999,-99.99,,,-99.99,,2013-01-27 23:42:00,
2013-01-27 18:53:00,27.0,-99.9,30.20,SE,128,7.0,9.0,-999,-99.99,,,-99.99,,2013-01-27 23:53:00,
2013-01-27 19:02:00,-999.0,-99.9,30.19,ESE,119,7.0,9.0,-999,-99.99,,,-99.99,,2013-01-28 00:02:00,
2013-01-27 19:12:00,27.0,-99.9,30.19,ESE,121,7.0,10.0,-999,-99.99,,,-99.99,,2013-01-28 00:12:00,
2013-01-27 19:22:00,-999.0,-99.9,30.19,ESE,110,10.0,12.0,-999,-99.99,,,-99.99,,2013-01-28 00:22:00,
2013-01-27 19:33:00,-999.0,-99.9,30.19,ESE,104,11.0,13.0,-999,-99.99,,,-99.99,,2013-01-28 00:33:00,
2013-01-27 19:42:00,28.0,-99.9,30.18,ESE,103,12.0,13.0,-999,-99.99,,,-99.99,,2013-01-28 00:42:00,
2013-01-27 19:52:00,-999.0,-99.9,30.19,ESE,106,12.0,14.0,-999,-99.99,,,-99.99,,2013-01-28 00:52:00,
2013-01-27 20:02:00,-999.0,-99.9,30.19,ESE,113,10.0,13.0,-999,-99.99,,,-99.99,,2013-01-28 01:02:00,
2013-01-27 20:12:00,-999.0,-99.9,30.18,ESE,105,13.0,14.0,-999,-99.99,,,-99.99,,2013-01-28 01:12:00,
2013-01-27 20:22:00,27.0,-99.9,30.18,ESE,110,12.0,14.0,-999,-99.99,,,-99.99,,2013-01-28 01:22:00,
2013-01-27 20:33:00,-999.0,-99.9,30.18,ESE,114,10.0,13.0,-999,-99.99,,,-99.99,,2013-01-28 01:33:00,
2013-01-27 20:43:00,27.0,-99.9,30.18,ESE,118,10.0,13.0,-999,-99.99,,,-99.99,,2013-01-28 01:43:00,
2013-01-27 20:52:00,-999.0,-99.9,30.17,ESE,105,13.0,14.0,-999,-99.99,,,-99.99,,2013-01-28 01:52:00,
2013-01-27 21:02:00,-999.0,-99.9,30.17,ESE,106,13.0,14.0,-999,-99.99,,,-99.99,,2013-01-28 02:02:00,
2013-01-27 21:12:00,27.0,-99.9,30.17,ESE,105,13.0,15.0,-999,-99.99,,,-99.99,,2013-01-28 02:12:00,
2013-01-27 21:22:00,-999.0,-99.9,30.16,ESE,109,13.0,16.0,-999,-99.99,,,-99.99,,2013-01-28 02:22:00,
2013-01-27 21:32:00,-999.0,-99.9,30.16,ESE,108,15.0,16.0,-999,-99.99,,,-99.99,,2013-01-28 02:32:00,
2013-01-27 21:42:00,-999.0,-99.9,30.15,ESE,106,15.0,18.0,-999,-99.99,,,-99.99,,2013-01-28 02:42:00,
2013-01-27 21:53:00,-999.0,-99.9,30.15,ESE,111,14.0,17.0,-999,-99.99,,,-99.99,,2013-01-28 02:53:00,
2013-01-27 22:02:00,-999.0,-99.9,30.14,ESE,113,16.0,18.0,-999,-99.99,,,-99.99,,2013-01-28 03:02:00,
2013-01-27 22:12:00,27.0,-99.9,30.14,ESE,110,15.0,18.0,-999,-99.99,,,-99.99,,2013-01-28 03:12:00,
2013-01-27 22:22:00,-999.0,-99.9,30.14,ESE,116,14.0,19.0,-999,-99.99,,,-99.99,,2013-01-28 03:22:00,
2013-01-27 22:32:00,-999.0,-99.9,30.13,ESE,116,12.0,17.0,-999,-99.99,,,-99.99,,2013-01-28 03:32:00,
2013-01-27 22:42:00,28.0,-99.9,30.13,ESE,111,16.0,18.0,-999,-99.99,,,-99.99,,2013-01-28 03:42:00,
2013-01-27 22:53:00,-999.0,-99.9,30.12,ESE,112,15.0,19.0,-999,-99.99,,,-99.99,,2013-01-28 03:53:00,
2013-01-27 23:02:00,-999.0,-99.9,30.12,ESE,112,14.0,19.0,-999,-99.99,,,-99.99,,2013-01-28 04:02:00,
2013-01-27 23:12:00,-999.0,-99.9,30.11,ESE,113,14.0,18.0,-999,-99.99,,,-99.99,,2013-01-28 04:12:00,
2013-01-27 23:22:00,-999.0,-99.9,30.11,ESE,113,15.0,20.0,-999,-99.99,,,-99.99,,2013-01-28 04:22:00,
2013-01-27 23:32:00,-999.0,-99.9,30.10,ESE,117,16.0,19.0,-999,-99.99,,,-99.99,,2013-01-28 04:32:00,
2013-01-27 23:42:00,-999.0,-99.9,30.09,ESE,118,13.0,18.0,-999,-99.99,,,-99.99,,2013-01-28 04:42:00,
2013-01-27 23:52:00,27.0,-99.9,30.09,ESE,116,12.0,17.0,-999,-99.99,,,-99.99,,2013-01-28 04:52:00,